Airfield :
LOGIN :

Register | Disclaimer

   EN    FR    IT 

 










Legend :    VFR   Marginal VFR   IFR   Intensive IFR   Very Intensive IFR
Visi :
Ceiling :
>= 8 km
>= 3000ft
5 to 8 km
1000 to 3000 ft
1500m to 5 km
500 to 1000 ft
800 to 1500m
200 to 500 ft
< 800m
< 200 ft
Symbols :   Thunderstorms  Fog  Heavy snow  Heavy precipitations  Wind > 20 kt
SIGMETs :     Misc.  Thunderstorms  Icing  Turbulence  Mountain Waves  Volcanic Ashes







- Airport Elevation : 87 ft
- IATA code : AHO


LIEA - Fertilia Alghero

CURRENT METAR :
  • 241720Z 20010KT 9999 FEW011 21/17 Q1018

EXPIRED METARs :
  • 241650Z 20012KT 9999 FEW014 22/17 Q1017
  • 241620Z 20011KT 9999 FEW014 22/17 Q1017
  • 241550Z 20012KT CAVOK 22/17 Q1017
  • 241520Z 20012KT CAVOK 23/17 Q1018
  • 241450Z 20011KT CAVOK 23/17 Q1018

TAF TAF LIEA
Valid from the 24 at 18:00 until the 25 at 18:00 UTC


241700Z 2418/2518 20010KT CAVOK
BECMG 2418/2420 VRB04KT
TEMPO 2500/2506 1200 BCFG BKN002
BECMG 2509/2511 20010KT
BECMG 2516/2518 VRB05KT
No reported NOTAMs for that airfield.



MET'MAP, your aeronautical weather chart ! - Copyright ORBIFLY December 2007 - Disclaimer

ORBIFLY MET'MAP TEAM :

Programming & Development : Alexandra Zaïnal
Concept & Development : Baudouin d'Aumeries
Co-Development & Prog : Marc-Olivier Méhu
Technical & hardware support : Manuel Goepfert

Contact : metmap@orbifly.com




SOURCES & CREDITS :

   NOAA